sensor_id;sensor_type;location;lat;lon;timestamp;P1;durP1;ratioP1;P2;durP2;ratioP2
76063;SDS011;64762;52.006;8.424;2024-01-15T00:01:51;18.00;;;6.70;;
76063;SDS011;64762;52.006;8.424;2024-01-15T00:04:17;18.13;;;7.30;;
76063;SDS011;64762;52.006;8.424;2024-01-15T00:06:42;21.38;;;8.00;;
76063;SDS011;64762;52.006;8.424;2024-01-15T00:09:07;18.47;;;7.40;;
76063;SDS011;64762;52.006;8.424;2024-01-15T00:11:33;24.87;;;7.17;;
76063;SDS011;64762;52.006;8.424;2024-01-15T00:13:58;23.30;;;7.67;;
76063;SDS011;64762;52.006;8.424;2024-01-15T00:16:23;18.40;;;7.33;;
76063;SDS011;64762;52.006;8.424;2024-01-15T00:18:49;19.27;;;7.20;;
76063;SDS011;64762;52.006;8.424;2024-01-15T00:21:14;17.30;;;7.20;;
76063;SDS011;64762;52.006;8.424;2024-01-15T00:23:42;16.77;;;6.40;;
76063;SDS011;64762;52.006;8.424;2024-01-15T00:26:09;18.42;;;7.18;;
76063;SDS011;64762;52.006;8.424;2024-01-15T00:28:34;15.70;;;6.00;;
76063;SDS011;64762;52.006;8.424;2024-01-15T00:31:01;20.65;;;6.93;;
76063;SDS011;64762;52.006;8.424;2024-01-15T00:33:26;17.47;;;5.97;;
76063;SDS011;64762;52.006;8.424;2024-01-15T00:35:51;19.93;;;7.03;;
76063;SDS011;64762;52.006;8.424;2024-01-15T00:38:17;16.23;;;5.90;;
76063;SDS011;64762;52.006;8.424;2024-01-15T00:40:42;18.23;;;6.10;;
76063;SDS011;64762;52.006;8.424;2024-01-15T00:43:08;20.40;;;6.10;;
76063;SDS011;64762;52.006;8.424;2024-01-15T00:45:33;15.63;;;5.87;;
76063;SDS011;64762;52.006;8.424;2024-01-15T00:47:58;15.67;;;5.40;;
76063;SDS011;64762;52.006;8.424;2024-01-15T00:50:26;14.25;;;5.40;;
76063;SDS011;64762;52.006;8.424;2024-01-15T00:52:51;13.17;;;5.70;;
76063;SDS011;64762;52.006;8.424;2024-01-15T00:55:16;15.50;;;5.23;;
76063;SDS011;64762;52.006;8.424;2024-01-15T00:57:41;13.50;;;5.43;;
76063;SDS011;64762;52.006;8.424;2024-01-15T01:00:07;16.27;;;4.90;;
76063;SDS011;64762;52.006;8.424;2024-01-15T01:02:33;12.85;;;5.28;;
76063;SDS011;64762;52.006;8.424;2024-01-15T01:04:59;13.87;;;4.67;;
76063;SDS011;64762;52.006;8.424;2024-01-15T01:07:24;12.10;;;4.40;;
76063;SDS011;64762;52.006;8.424;2024-01-15T01:09:49;11.43;;;3.83;;
76063;SDS011;64762;52.006;8.424;2024-01-15T01:12:16;10.20;;;3.90;;
76063;SDS011;64762;52.006;8.424;2024-01-15T01:14:41;11.02;;;3.45;;
76063;SDS011;64762;52.006;8.424;2024-01-15T01:17:06;11.57;;;4.10;;
76063;SDS011;64762;52.006;8.424;2024-01-15T01:19:32;13.03;;;4.37;;
76063;SDS011;64762;52.006;8.424;2024-01-15T01:21:57;9.80;;;3.40;;
76063;SDS011;64762;52.006;8.424;2024-01-15T01:24:22;11.80;;;3.87;;
76063;SDS011;64762;52.006;8.424;2024-01-15T01:26:48;9.60;;;3.27;;
76063;SDS011;64762;52.006;8.424;2024-01-15T01:29:14;10.95;;;3.83;;
76063;SDS011;64762;52.006;8.424;2024-01-15T01:31:43;9.90;;;3.03;;
76063;SDS011;64762;52.006;8.424;2024-01-15T01:34:09;11.32;;;3.80;;
76063;SDS011;64762;52.006;8.424;2024-01-15T01:36:34;8.23;;;3.63;;
76063;SDS011;64762;52.006;8.424;2024-01-15T01:38:59;9.93;;;3.90;;
76063;SDS011;64762;52.006;8.424;2024-01-15T01:41:25;13.93;;;3.77;;
76063;SDS011;64762;52.006;8.424;2024-01-15T01:43:50;12.60;;;4.53;;
76063;SDS011;64762;52.006;8.424;2024-01-15T01:46:15;11.50;;;3.83;;
76063;SDS011;64762;52.006;8.424;2024-01-15T01:48:41;11.83;;;4.33;;
76063;SDS011;64762;52.006;8.424;2024-01-15T01:51:06;11.77;;;3.30;;
76063;SDS011;64762;52.006;8.424;2024-01-15T01:53:33;10.68;;;3.78;;
76063;SDS011;64762;52.006;8.424;2024-01-15T01:55:59;9.18;;;3.83;;
76063;SDS011;64762;52.006;8.424;2024-01-15T01:58:24;9.67;;;3.77;;
76063;SDS011;64762;52.006;8.424;2024-01-15T02:00:50;13.25;;;4.35;;
76063;SDS011;64762;52.006;8.424;2024-01-15T02:03:16;9.03;;;4.07;;
76063;SDS011;64762;52.006;8.424;2024-01-15T02:05:41;11.50;;;4.17;;
76063;SDS011;64762;52.006;8.424;2024-01-15T02:08:08;18.17;;;5.07;;
76063;SDS011;64762;52.006;8.424;2024-01-15T02:10:33;12.80;;;3.97;;
76063;SDS011;64762;52.006;8.424;2024-01-15T02:12:58;9.83;;;3.93;;
76063;SDS011;64762;52.006;8.424;2024-01-15T02:15:23;10.10;;;3.30;;
76063;SDS011;64762;52.006;8.424;2024-01-15T02:18:02;13.80;;;5.07;;
76063;SDS011;64762;52.006;8.424;2024-01-15T02:20:29;9.63;;;3.83;;
76063;SDS011;64762;52.006;8.424;2024-01-15T02:23:01;15.45;;;3.58;;
76063;SDS011;64762;52.006;8.424;2024-01-15T02:25:30;11.85;;;3.70;;
76063;SDS011;64762;52.006;8.424;2024-01-15T02:27:55;12.63;;;3.97;;
76063;SDS011;64762;52.006;8.424;2024-01-15T02:30:20;10.38;;;3.95;;
76063;SDS011;64762;52.006;8.424;2024-01-15T02:32:47;8.88;;;3.70;;
76063;SDS011;64762;52.006;8.424;2024-01-15T02:35:12;10.97;;;3.37;;
76063;SDS011;64762;52.006;8.424;2024-01-15T02:37:37;16.33;;;3.93;;
76063;SDS011;64762;52.006;8.424;2024-01-15T02:40:03;7.77;;;3.63;;
76063;SDS011;64762;52.006;8.424;2024-01-15T02:42:28;14.27;;;4.07;;
76063;SDS011;64762;52.006;8.424;2024-01-15T02:44:53;11.27;;;3.73;;
76063;SDS011;64762;52.006;8.424;2024-01-15T02:47:19;15.60;;;4.40;;
76063;SDS011;64762;52.006;8.424;2024-01-15T02:49:44;15.43;;;3.73;;
76063;SDS011;64762;52.006;8.424;2024-01-15T02:52:09;9.67;;;3.87;;
76063;SDS011;64762;52.006;8.424;2024-01-15T02:54:34;11.70;;;4.23;;
76063;SDS011;64762;52.006;8.424;2024-01-15T02:57:00;9.90;;;3.93;;
76063;SDS011;64762;52.006;8.424;2024-01-15T02:59:25;11.63;;;4.17;;
76063;SDS011;64762;52.006;8.424;2024-01-15T03:01:50;12.13;;;3.10;;
76063;SDS011;64762;52.006;8.424;2024-01-15T03:04:16;13.77;;;4.57;;
76063;SDS011;64762;52.006;8.424;2024-01-15T03:06:41;13.10;;;3.90;;
76063;SDS011;64762;52.006;8.424;2024-01-15T03:09:06;11.37;;;4.17;;
76063;SDS011;64762;52.006;8.424;2024-01-15T03:11:38;12.33;;;3.83;;
76063;SDS011;64762;52.006;8.424;2024-01-15T03:14:04;10.50;;;4.45;;
76063;SDS011;64762;52.006;8.424;2024-01-15T03:16:29;7.70;;;3.40;;
76063;SDS011;64762;52.006;8.424;2024-01-15T03:18:54;8.27;;;3.43;;
76063;SDS011;64762;52.006;8.424;2024-01-15T03:21:20;14.03;;;4.20;;
76063;SDS011;64762;52.006;8.424;2024-01-15T03:23:45;12.80;;;3.83;;
76063;SDS011;64762;52.006;8.424;2024-01-15T03:26:10;9.97;;;3.70;;
76063;SDS011;64762;52.006;8.424;2024-01-15T03:28:35;12.20;;;3.63;;
76063;SDS011;64762;52.006;8.424;2024-01-15T03:31:01;15.33;;;4.40;;
76063;SDS011;64762;52.006;8.424;2024-01-15T03:33:26;15.67;;;3.70;;
76063;SDS011;64762;52.006;8.424;2024-01-15T03:35:51;17.27;;;5.00;;
76063;SDS011;64762;52.006;8.424;2024-01-15T03:38:17;14.67;;;3.77;;
76063;SDS011;64762;52.006;8.424;2024-01-15T03:40:42;10.57;;;4.03;;
76063;SDS011;64762;52.006;8.424;2024-01-15T03:43:07;13.73;;;4.40;;
76063;SDS011;64762;52.006;8.424;2024-01-15T03:45:33;15.30;;;4.20;;
76063;SDS011;64762;52.006;8.424;2024-01-15T03:47:58;10.38;;;4.30;;
76063;SDS011;64762;52.006;8.424;2024-01-15T03:50:23;13.77;;;4.77;;
76063;SDS011;64762;52.006;8.424;2024-01-15T03:52:49;10.32;;;3.22;;
76063;SDS011;64762;52.006;8.424;2024-01-15T03:55:14;9.63;;;3.40;;
76063;SDS011;64762;52.006;8.424;2024-01-15T03:57:40;11.50;;;4.17;;
76063;SDS011;64762;52.006;8.424;2024-01-15T04:00:05;11.43;;;3.60;;
76063;SDS011;64762;52.006;8.424;2024-01-15T04:02:32;11.75;;;3.72;;
76063;SDS011;64762;52.006;8.424;2024-01-15T04:04:58;16.03;;;3.50;;
76063;SDS011;64762;52.006;8.424;2024-01-15T04:07:23;16.77;;;4.47;;
76063;SDS011;64762;52.006;8.424;2024-01-15T04:09:48;13.47;;;3.13;;
76063;SDS011;64762;52.006;8.424;2024-01-15T04:12:14;12.87;;;3.40;;
76063;SDS011;64762;52.006;8.424;2024-01-15T04:14:39;11.07;;;3.73;;
76063;SDS011;64762;52.006;8.424;2024-01-15T04:17:04;14.93;;;3.17;;
76063;SDS011;64762;52.006;8.424;2024-01-15T04:19:29;13.67;;;3.90;;
76063;SDS011;64762;52.006;8.424;2024-01-15T04:21:55;11.50;;;4.33;;
76063;SDS011;64762;52.006;8.424;2024-01-15T04:24:20;9.70;;;3.53;;
76063;SDS011;64762;52.006;8.424;2024-01-15T04:26:45;15.00;;;3.63;;
76063;SDS011;64762;52.006;8.424;2024-01-15T04:29:10;8.93;;;3.70;;
76063;SDS011;64762;52.006;8.424;2024-01-15T04:31:36;12.10;;;3.20;;
76063;SDS011;64762;52.006;8.424;2024-01-15T04:34:01;12.40;;;3.23;;
76063;SDS011;64762;52.006;8.424;2024-01-15T04:36:26;11.20;;;2.87;;
76063;SDS011;64762;52.006;8.424;2024-01-15T04:38:52;10.97;;;3.00;;
76063;SDS011;64762;52.006;8.424;2024-01-15T04:41:17;10.57;;;3.20;;
76063;SDS011;64762;52.006;8.424;2024-01-15T04:43:42;8.13;;;2.93;;
76063;SDS011;64762;52.006;8.424;2024-01-15T04:46:08;15.77;;;2.87;;
76063;SDS011;64762;52.006;8.424;2024-01-15T04:48:33;8.68;;;3.72;;
76063;SDS011;64762;52.006;8.424;2024-01-15T04:50:59;9.88;;;3.67;;
76063;SDS011;64762;52.006;8.424;2024-01-15T04:53:24;8.63;;;3.70;;
76063;SDS011;64762;52.006;8.424;2024-01-15T04:55:50;10.43;;;4.20;;
76063;SDS011;64762;52.006;8.424;2024-01-15T04:58:15;7.83;;;3.07;;
76063;SDS011;64762;52.006;8.424;2024-01-15T05:00:40;9.60;;;3.33;;
76063;SDS011;64762;52.006;8.424;2024-01-15T05:03:06;10.80;;;4.00;;
76063;SDS011;64762;52.006;8.424;2024-01-15T05:05:31;6.97;;;3.10;;
76063;SDS011;64762;52.006;8.424;2024-01-15T05:07:56;9.33;;;3.43;;
76063;SDS011;64762;52.006;8.424;2024-01-15T05:10:21;11.37;;;4.13;;
76063;SDS011;64762;52.006;8.424;2024-01-15T05:12:47;12.03;;;3.97;;
76063;SDS011;64762;52.006;8.424;2024-01-15T05:15:12;13.67;;;4.50;;
76063;SDS011;64762;52.006;8.424;2024-01-15T05:17:37;9.60;;;3.60;;
76063;SDS011;64762;52.006;8.424;2024-01-15T05:20:03;8.50;;;3.43;;
76063;SDS011;64762;52.006;8.424;2024-01-15T05:22:29;10.45;;;3.88;;
76063;SDS011;64762;52.006;8.424;2024-01-15T05:24:54;11.17;;;3.43;;
76063;SDS011;64762;52.006;8.424;2024-01-15T05:27:20;8.57;;;4.17;;
76063;SDS011;64762;52.006;8.424;2024-01-15T05:29:45;11.27;;;3.50;;
76063;SDS011;64762;52.006;8.424;2024-01-15T05:32:10;10.63;;;3.60;;
76063;SDS011;64762;52.006;8.424;2024-01-15T05:34:35;13.77;;;3.73;;
76063;SDS011;64762;52.006;8.424;2024-01-15T05:37:01;8.73;;;3.27;;
76063;SDS011;64762;52.006;8.424;2024-01-15T05:39:26;8.97;;;3.27;;
76063;SDS011;64762;52.006;8.424;2024-01-15T05:41:51;7.97;;;2.80;;
76063;SDS011;64762;52.006;8.424;2024-01-15T05:44:17;7.82;;;3.15;;
76063;SDS011;64762;52.006;8.424;2024-01-15T05:46:42;7.93;;;2.97;;
76063;SDS011;64762;52.006;8.424;2024-01-15T05:49:08;11.47;;;3.43;;
76063;SDS011;64762;52.006;8.424;2024-01-15T05:51:33;8.55;;;2.55;;
76063;SDS011;64762;52.006;8.424;2024-01-15T05:53:58;12.50;;;3.10;;
76063;SDS011;64762;52.006;8.424;2024-01-15T05:56:24;10.43;;;3.43;;
76063;SDS011;64762;52.006;8.424;2024-01-15T05:58:49;9.63;;;3.53;;
76063;SDS011;64762;52.006;8.424;2024-01-15T06:01:14;6.88;;;3.10;;
76063;SDS011;64762;52.006;8.424;2024-01-15T06:03:40;11.85;;;3.33;;
76063;SDS011;64762;52.006;8.424;2024-01-15T06:06:05;11.97;;;3.57;;
76063;SDS011;64762;52.006;8.424;2024-01-15T06:08:30;8.35;;;2.90;;
76063;SDS011;64762;52.006;8.424;2024-01-15T06:10:56;11.83;;;3.40;;
76063;SDS011;64762;52.006;8.424;2024-01-15T06:13:21;7.53;;;3.20;;
76063;SDS011;64762;52.006;8.424;2024-01-15T06:15:47;9.10;;;3.63;;
76063;SDS011;64762;52.006;8.424;2024-01-15T06:18:12;10.73;;;4.17;;
76063;SDS011;64762;52.006;8.424;2024-01-15T06:20:37;11.93;;;3.90;;
76063;SDS011;64762;52.006;8.424;2024-01-15T06:23:03;10.32;;;3.70;;
76063;SDS011;64762;52.006;8.424;2024-01-15T06:25:29;10.13;;;3.88;;
76063;SDS011;64762;52.006;8.424;2024-01-15T06:27:54;11.43;;;3.05;;
76063;SDS011;64762;52.006;8.424;2024-01-15T06:30:19;10.80;;;3.43;;
76063;SDS011;64762;52.006;8.424;2024-01-15T06:32:45;7.55;;;3.30;;
76063;SDS011;64762;52.006;8.424;2024-01-15T06:35:10;16.60;;;4.17;;
76063;SDS011;64762;52.006;8.424;2024-01-15T06:37:36;8.23;;;3.20;;
76063;SDS011;64762;52.006;8.424;2024-01-15T06:40:02;12.90;;;3.50;;
76063;SDS011;64762;52.006;8.424;2024-01-15T06:42:28;6.18;;;2.88;;
76063;SDS011;64762;52.006;8.424;2024-01-15T06:44:53;8.38;;;2.97;;
76063;SDS011;64762;52.006;8.424;2024-01-15T06:47:18;8.80;;;3.27;;
76063;SDS011;64762;52.006;8.424;2024-01-15T06:49:44;8.95;;;3.28;;
76063;SDS011;64762;52.006;8.424;2024-01-15T06:52:09;5.83;;;2.67;;
76063;SDS011;64762;52.006;8.424;2024-01-15T06:54:36;7.78;;;2.83;;
76063;SDS011;64762;52.006;8.424;2024-01-15T06:57:02;14.30;;;3.55;;
76063;SDS011;64762;52.006;8.424;2024-01-15T06:59:27;11.70;;;3.63;;
76063;SDS011;64762;52.006;8.424;2024-01-15T07:01:52;11.07;;;3.03;;
76063;SDS011;64762;52.006;8.424;2024-01-15T07:04:18;8.77;;;3.00;;
76063;SDS011;64762;52.006;8.424;2024-01-15T07:06:43;9.23;;;2.67;;
76063;SDS011;64762;52.006;8.424;2024-01-15T07:09:08;9.23;;;3.00;;
76063;SDS011;64762;52.006;8.424;2024-01-15T07:11:34;6.00;;;2.60;;
76063;SDS011;64762;52.006;8.424;2024-01-15T07:13:59;16.42;;;3.13;;
76063;SDS011;64762;52.006;8.424;2024-01-15T07:16:25;9.07;;;2.77;;
76063;SDS011;64762;52.006;8.424;2024-01-15T07:18:50;6.53;;;2.77;;
76063;SDS011;64762;52.006;8.424;2024-01-15T07:21:15;10.03;;;2.83;;
76063;SDS011;64762;52.006;8.424;2024-01-15T07:23:40;6.03;;;2.77;;
76063;SDS011;64762;52.006;8.424;2024-01-15T07:26:07;6.80;;;2.95;;
76063;SDS011;64762;52.006;8.424;2024-01-15T07:28:32;10.27;;;2.63;;
76063;SDS011;64762;52.006;8.424;2024-01-15T07:30:58;6.07;;;2.57;;
76063;SDS011;64762;52.006;8.424;2024-01-15T07:33:23;7.40;;;2.67;;
76063;SDS011;64762;52.006;8.424;2024-01-15T07:35:48;10.63;;;3.20;;
76063;SDS011;64762;52.006;8.424;2024-01-15T07:38:14;11.97;;;3.10;;
76063;SDS011;64762;52.006;8.424;2024-01-15T07:40:41;7.83;;;2.73;;
76063;SDS011;64762;52.006;8.424;2024-01-15T07:43:06;16.15;;;3.13;;
76063;SDS011;64762;52.006;8.424;2024-01-15T07:45:33;8.57;;;2.87;;
76063;SDS011;64762;52.006;8.424;2024-01-15T07:47:58;11.18;;;3.05;;
76063;SDS011;64762;52.006;8.424;2024-01-15T07:50:23;8.63;;;3.10;;
76063;SDS011;64762;52.006;8.424;2024-01-15T07:52:49;6.40;;;2.53;;
76063;SDS011;64762;52.006;8.424;2024-01-15T07:55:14;6.37;;;2.40;;
76063;SDS011;64762;52.006;8.424;2024-01-15T07:57:39;6.00;;;2.63;;
76063;SDS011;64762;52.006;8.424;2024-01-15T08:00:05;8.47;;;2.10;;
76063;SDS011;64762;52.006;8.424;2024-01-15T08:02:30;6.53;;;3.00;;
76063;SDS011;64762;52.006;8.424;2024-01-15T08:04:57;7.00;;;3.03;;
76063;SDS011;64762;52.006;8.424;2024-01-15T08:07:23;12.85;;;2.63;;
76063;SDS011;64762;52.006;8.424;2024-01-15T08:09:49;5.07;;;2.50;;
76063;SDS011;64762;52.006;8.424;2024-01-15T08:12:14;5.50;;;2.50;;
76063;SDS011;64762;52.006;8.424;2024-01-15T08:14:40;5.20;;;2.23;;
76063;SDS011;64762;52.006;8.424;2024-01-15T08:17:05;5.70;;;2.87;;
76063;SDS011;64762;52.006;8.424;2024-01-15T08:19:30;10.23;;;3.00;;
76063;SDS011;64762;52.006;8.424;2024-01-15T08:21:56;4.30;;;2.15;;
76063;SDS011;64762;52.006;8.424;2024-01-15T08:24:21;7.27;;;3.23;;
76063;SDS011;64762;52.006;8.424;2024-01-15T08:26:47;7.67;;;3.07;;
76063;SDS011;64762;52.006;8.424;2024-01-15T08:29:12;9.90;;;3.07;;
76063;SDS011;64762;52.006;8.424;2024-01-15T08:31:37;10.70;;;3.60;;
76063;SDS011;64762;52.006;8.424;2024-01-15T08:34:03;7.07;;;2.60;;
76063;SDS011;64762;52.006;8.424;2024-01-15T08:36:28;5.87;;;2.30;;
76063;SDS011;64762;52.006;8.424;2024-01-15T08:38:55;5.50;;;2.40;;
76063;SDS011;64762;52.006;8.424;2024-01-15T08:41:21;5.13;;;2.35;;
76063;SDS011;64762;52.006;8.424;2024-01-15T08:43:46;4.23;;;2.17;;
76063;SDS011;64762;52.006;8.424;2024-01-15T08:46:11;5.43;;;2.27;;
76063;SDS011;64762;52.006;8.424;2024-01-15T08:48:37;9.38;;;2.50;;
76063;SDS011;64762;52.006;8.424;2024-01-15T08:51:02;5.50;;;2.27;;
76063;SDS011;64762;52.006;8.424;2024-01-15T08:53:27;4.43;;;2.22;;
76063;SDS011;64762;52.006;8.424;2024-01-15T08:55:53;6.00;;;2.23;;
76063;SDS011;64762;52.006;8.424;2024-01-15T08:58:18;6.10;;;2.37;;
76063;SDS011;64762;52.006;8.424;2024-01-15T09:00:43;5.37;;;2.23;;
76063;SDS011;64762;52.006;8.424;2024-01-15T09:03:09;5.45;;;2.15;;
76063;SDS011;64762;52.006;8.424;2024-01-15T09:05:35;3.80;;;2.10;;
76063;SDS011;64762;52.006;8.424;2024-01-15T09:08:01;5.15;;;2.40;;
76063;SDS011;64762;52.006;8.424;2024-01-15T09:10:26;6.10;;;2.03;;
76063;SDS011;64762;52.006;8.424;2024-01-15T09:12:51;6.10;;;2.43;;
76063;SDS011;64762;52.006;8.424;2024-01-15T09:15:17;9.20;;;2.90;;
76063;SDS011;64762;52.006;8.424;2024-01-15T09:17:42;5.23;;;2.70;;
76063;SDS011;64762;52.006;8.424;2024-01-15T09:20:08;6.55;;;2.72;;
76063;SDS011;64762;52.006;8.424;2024-01-15T09:22:34;7.50;;;2.55;;
76063;SDS011;64762;52.006;8.424;2024-01-15T09:25:00;5.90;;;2.80;;
76063;SDS011;64762;52.006;8.424;2024-01-15T09:27:25;7.10;;;2.97;;
76063;SDS011;64762;52.006;8.424;2024-01-15T09:29:53;6.63;;;2.67;;
76063;SDS011;64762;52.006;8.424;2024-01-15T09:32:19;6.10;;;2.67;;
76063;SDS011;64762;52.006;8.424;2024-01-15T09:34:48;6.10;;;2.53;;
76063;SDS011;64762;52.006;8.424;2024-01-15T09:37:14;5.53;;;2.58;;
76063;SDS011;64762;52.006;8.424;2024-01-15T09:39:39;6.05;;;2.35;;
76063;SDS011;64762;52.006;8.424;2024-01-15T09:42:04;9.03;;;3.00;;
76063;SDS011;64762;52.006;8.424;2024-01-15T09:44:30;10.23;;;2.50;;
76063;SDS011;64762;52.006;8.424;2024-01-15T09:46:56;8.65;;;2.60;;
76063;SDS011;64762;52.006;8.424;2024-01-15T09:49:21;10.18;;;2.42;;
76063;SDS011;64762;52.006;8.424;2024-01-15T09:51:47;6.03;;;2.63;;
76063;SDS011;64762;52.006;8.424;2024-01-15T09:54:12;5.70;;;2.43;;
76063;SDS011;64762;52.006;8.424;2024-01-15T09:56:38;6.88;;;2.78;;
76063;SDS011;64762;52.006;8.424;2024-01-15T09:59:04;5.50;;;2.40;;
76063;SDS011;64762;52.006;8.424;2024-01-15T10:01:29;8.27;;;2.20;;
76063;SDS011;64762;52.006;8.424;2024-01-15T10:03:56;4.38;;;1.98;;
76063;SDS011;64762;52.006;8.424;2024-01-15T10:06:21;5.97;;;2.10;;
76063;SDS011;64762;52.006;8.424;2024-01-15T10:08:48;7.07;;;2.47;;
76063;SDS011;64762;52.006;8.424;2024-01-15T10:11:14;7.93;;;2.20;;
76063;SDS011;64762;52.006;8.424;2024-01-15T10:13:39;6.30;;;2.80;;
76063;SDS011;64762;52.006;8.424;2024-01-15T10:16:05;4.33;;;2.13;;
76063;SDS011;64762;52.006;8.424;2024-01-15T10:18:31;12.27;;;2.42;;
76063;SDS011;64762;52.006;8.424;2024-01-15T10:20:57;5.20;;;2.17;;
76063;SDS011;64762;52.006;8.424;2024-01-15T10:23:24;4.47;;;2.00;;
76063;SDS011;64762;52.006;8.424;2024-01-15T10:25:49;7.78;;;2.17;;
76063;SDS011;64762;52.006;8.424;2024-01-15T10:28:16;10.25;;;2.90;;
76063;SDS011;64762;52.006;8.424;2024-01-15T10:30:41;7.80;;;2.28;;
76063;SDS011;64762;52.006;8.424;2024-01-15T10:33:07;6.97;;;2.73;;
76063;SDS011;64762;52.006;8.424;2024-01-15T10:35:34;9.40;;;2.67;;
76063;SDS011;64762;52.006;8.424;2024-01-15T10:38:00;8.50;;;2.63;;
76063;SDS011;64762;52.006;8.424;2024-01-15T10:40:26;7.95;;;2.53;;
76063;SDS011;64762;52.006;8.424;2024-01-15T10:42:51;5.97;;;2.22;;
76063;SDS011;64762;52.006;8.424;2024-01-15T10:45:17;7.17;;;2.23;;
76063;SDS011;64762;52.006;8.424;2024-01-15T10:47:43;8.23;;;2.58;;
76063;SDS011;64762;52.006;8.424;2024-01-15T10:50:08;7.30;;;2.17;;
76063;SDS011;64762;52.006;8.424;2024-01-15T10:52:38;7.18;;;1.92;;
76063;SDS011;64762;52.006;8.424;2024-01-15T10:55:05;5.53;;;2.47;;
76063;SDS011;64762;52.006;8.424;2024-01-15T10:57:33;4.95;;;1.85;;
76063;SDS011;64762;52.006;8.424;2024-01-15T10:59:59;5.13;;;1.90;;
76063;SDS011;64762;52.006;8.424;2024-01-15T11:02:24;5.07;;;1.92;;
76063;SDS011;64762;52.006;8.424;2024-01-15T11:04:50;7.90;;;1.92;;
76063;SDS011;64762;52.006;8.424;2024-01-15T11:07:16;4.13;;;1.50;;
76063;SDS011;64762;52.006;8.424;2024-01-15T11:09:41;10.35;;;2.03;;
76063;SDS011;64762;52.006;8.424;2024-01-15T11:12:10;6.80;;;2.13;;
76063;SDS011;64762;52.006;8.424;2024-01-15T11:14:41;4.25;;;1.67;;
76063;SDS011;64762;52.006;8.424;2024-01-15T11:17:10;6.95;;;2.05;;
76063;SDS011;64762;52.006;8.424;2024-01-15T11:19:36;4.72;;;1.83;;
76063;SDS011;64762;52.006;8.424;2024-01-15T11:22:03;7.68;;;2.13;;
76063;SDS011;64762;52.006;8.424;2024-01-15T11:24:37;6.38;;;2.53;;
76063;SDS011;64762;52.006;8.424;2024-01-15T11:27:06;6.88;;;1.63;;
76063;SDS011;64762;52.006;8.424;2024-01-15T11:29:33;7.43;;;2.42;;
76063;SDS011;64762;52.006;8.424;2024-01-15T11:32:09;8.02;;;1.90;;
76063;SDS011;64762;52.006;8.424;2024-01-15T11:34:53;5.32;;;1.83;;
76063;SDS011;64762;52.006;8.424;2024-01-15T11:37:19;7.40;;;2.38;;
76063;SDS011;64762;52.006;8.424;2024-01-15T11:39:45;9.00;;;2.22;;
76063;SDS011;64762;52.006;8.424;2024-01-15T11:42:11;8.77;;;2.45;;
76063;SDS011;64762;52.006;8.424;2024-01-15T11:44:37;7.53;;;3.08;;
76063;SDS011;64762;52.006;8.424;2024-01-15T11:47:07;11.32;;;2.45;;
76063;SDS011;64762;52.006;8.424;2024-01-15T11:52:23;12.90;;;2.60;;
76063;SDS011;64762;52.006;8.424;2024-01-15T11:54:55;6.05;;;2.63;;
76063;SDS011;64762;52.006;8.424;2024-01-15T11:57:44;6.03;;;2.30;;
76063;SDS011;64762;52.006;8.424;2024-01-15T12:00:11;6.40;;;2.42;;
76063;SDS011;64762;52.006;8.424;2024-01-15T12:02:41;10.00;;;2.50;;
76063;SDS011;64762;52.006;8.424;2024-01-15T12:05:08;6.78;;;2.30;;
76063;SDS011;64762;52.006;8.424;2024-01-15T12:07:34;4.97;;;2.10;;
76063;SDS011;64762;52.006;8.424;2024-01-15T12:10:00;5.90;;;1.90;;
76063;SDS011;64762;52.006;8.424;2024-01-15T12:15:24;8.00;;;2.45;;
76063;SDS011;64762;52.006;8.424;2024-01-15T12:17:49;10.82;;;2.13;;
76063;SDS011;64762;52.006;8.424;2024-01-15T12:20:15;4.50;;;2.00;;
76063;SDS011;64762;52.006;8.424;2024-01-15T12:22:41;5.20;;;1.75;;
76063;SDS011;64762;52.006;8.424;2024-01-15T12:25:06;4.65;;;1.90;;
76063;SDS011;64762;52.006;8.424;2024-01-15T12:27:32;8.10;;;1.52;;
76063;SDS011;64762;52.006;8.424;2024-01-15T12:29:58;6.97;;;1.90;;
76063;SDS011;64762;52.006;8.424;2024-01-15T12:32:23;5.32;;;1.67;;
76063;SDS011;64762;52.006;8.424;2024-01-15T12:34:49;4.65;;;1.85;;
76063;SDS011;64762;52.006;8.424;2024-01-15T12:37:17;5.00;;;1.60;;
76063;SDS011;64762;52.006;8.424;2024-01-15T12:39:43;5.50;;;1.60;;
76063;SDS011;64762;52.006;8.424;2024-01-15T12:42:09;3.28;;;1.40;;
76063;SDS011;64762;52.006;8.424;2024-01-15T12:44:35;6.00;;;1.85;;
76063;SDS011;64762;52.006;8.424;2024-01-15T12:47:01;7.68;;;1.70;;
76063;SDS011;64762;52.006;8.424;2024-01-15T12:49:26;3.20;;;1.45;;
76063;SDS011;64762;52.006;8.424;2024-01-15T12:51:52;4.00;;;1.70;;
76063;SDS011;64762;52.006;8.424;2024-01-15T12:54:18;3.78;;;1.50;;
76063;SDS011;64762;52.006;8.424;2024-01-15T12:56:44;5.97;;;1.40;;
76063;SDS011;64762;52.006;8.424;2024-01-15T12:59:09;3.30;;;1.70;;
76063;SDS011;64762;52.006;8.424;2024-01-15T13:01:34;4.60;;;1.43;;
76063;SDS011;64762;52.006;8.424;2024-01-15T13:04:01;4.65;;;1.30;;
76063;SDS011;64762;52.006;8.424;2024-01-15T13:06:26;5.90;;;1.42;;
76063;SDS011;64762;52.006;8.424;2024-01-15T13:08:51;9.87;;;1.80;;
76063;SDS011;64762;52.006;8.424;2024-01-15T13:11:17;2.97;;;1.10;;
76063;SDS011;64762;52.006;8.424;2024-01-15T13:13:43;4.72;;;1.63;;
76063;SDS011;64762;52.006;8.424;2024-01-15T13:16:08;7.53;;;1.63;;
76063;SDS011;64762;52.006;8.424;2024-01-15T13:18:34;7.18;;;1.95;;
76063;SDS011;64762;52.006;8.424;2024-01-15T13:21:05;4.10;;;1.43;;
76063;SDS011;64762;52.006;8.424;2024-01-15T13:23:30;6.60;;;1.67;;
76063;SDS011;64762;52.006;8.424;2024-01-15T13:25:56;5.77;;;1.80;;
76063;SDS011;64762;52.006;8.424;2024-01-15T13:28:21;4.67;;;1.83;;
76063;SDS011;64762;52.006;8.424;2024-01-15T13:30:46;9.33;;;1.87;;
76063;SDS011;64762;52.006;8.424;2024-01-15T13:33:12;4.35;;;1.80;;
76063;SDS011;64762;52.006;8.424;2024-01-15T13:35:38;3.88;;;1.70;;
76063;SDS011;64762;52.006;8.424;2024-01-15T13:38:03;3.03;;;1.17;;
76063;SDS011;64762;52.006;8.424;2024-01-15T13:40:29;3.67;;;1.63;;
76063;SDS011;64762;52.006;8.424;2024-01-15T13:42:54;6.30;;;2.00;;
76063;SDS011;64762;52.006;8.424;2024-01-15T13:45:19;5.73;;;1.83;;
76063;SDS011;64762;52.006;8.424;2024-01-15T13:47:45;11.43;;;1.70;;
76063;SDS011;64762;52.006;8.424;2024-01-15T13:50:10;5.07;;;1.43;;
76063;SDS011;64762;52.006;8.424;2024-01-15T13:52:37;6.40;;;2.00;;
76063;SDS011;64762;52.006;8.424;2024-01-15T13:55:03;4.55;;;1.83;;
76063;SDS011;64762;52.006;8.424;2024-01-15T13:57:28;7.32;;;1.30;;
76063;SDS011;64762;52.006;8.424;2024-01-15T13:59:53;3.23;;;1.10;;
76063;SDS011;64762;52.006;8.424;2024-01-15T14:02:20;4.13;;;1.60;;
76063;SDS011;64762;52.006;8.424;2024-01-15T14:04:45;6.30;;;1.80;;
76063;SDS011;64762;52.006;8.424;2024-01-15T14:07:11;3.33;;;1.42;;
76063;SDS011;64762;52.006;8.424;2024-01-15T14:09:37;4.25;;;1.63;;
76063;SDS011;64762;52.006;8.424;2024-01-15T14:12:03;4.10;;;1.52;;
76063;SDS011;64762;52.006;8.424;2024-01-15T14:14:28;4.72;;;1.40;;
76063;SDS011;64762;52.006;8.424;2024-01-15T14:16:53;6.27;;;1.90;;
76063;SDS011;64762;52.006;8.424;2024-01-15T14:19:19;5.57;;;1.57;;
76063;SDS011;64762;52.006;8.424;2024-01-15T14:21:45;5.13;;;1.65;;
76063;SDS011;64762;52.006;8.424;2024-01-15T14:24:10;10.83;;;1.50;;
76063;SDS011;64762;52.006;8.424;2024-01-15T14:26:36;4.33;;;1.77;;
76063;SDS011;64762;52.006;8.424;2024-01-15T14:29:01;5.50;;;1.23;;
76063;SDS011;64762;52.006;8.424;2024-01-15T14:31:26;4.47;;;1.70;;
76063;SDS011;64762;52.006;8.424;2024-01-15T14:33:53;3.47;;;1.35;;
76063;SDS011;64762;52.006;8.424;2024-01-15T14:36:19;6.78;;;1.60;;
76063;SDS011;64762;52.006;8.424;2024-01-15T14:38:45;7.05;;;1.52;;
76063;SDS011;64762;52.006;8.424;2024-01-15T14:41:11;2.97;;;1.30;;